Terminal Aerodrome Forecast
Issued by NWS

Home | Current Version | Previous Version | Text Only | Print | Product List | Glossary On
Versions: 1 2 3 4 5 6 7 8 9 10 11 12 13 14 15 16 17 18 19 20 21 22 23 24
000
FTUS41 KPBZ 011100
TAFAGC
TAF
KAGC 011137Z 0112/0212 18006KT 3SM -SN OVC025
      TEMPO 0112/0114 1 1/2SM -SN OVC015
     FM011400 17005KT 6SM -SN OVC030
     FM011900 10006KT P6SM -SHRASN SCT030 OVC080
     FM020300 12007KT 2SM -RA BR OVC015
     FM020600 14007KT 1SM -RA BR OVC008=

USA.gov is the U.S. government's official web portal to all federal, state and local government web resources and services.